createdAt,value
2023-03-03T00:00:18.808Z,153.30
2023-03-03T00:01:41.905Z,151.00
2023-03-03T00:02:44.853Z,152.60
2023-03-03T00:03:48.488Z,146.30
2023-03-03T00:04:51.434Z,148.60
2023-03-03T00:05:58.084Z,143.70
2023-03-03T00:07:01.026Z,151.30
2023-03-03T00:08:04.498Z,150.90
2023-03-03T00:09:07.334Z,150.40
2023-03-03T00:10:11.429Z,149.90
2023-03-03T00:11:14.352Z,146.70
2023-03-03T00:12:24.518Z,153.20
2023-03-03T00:13:28.674Z,149.20
2023-03-03T00:14:33.562Z,143.70
2023-03-03T00:15:36.524Z,152.20
2023-03-03T00:16:39.414Z,142.10
2023-03-03T00:17:42.885Z,145.10
2023-03-03T00:18:47.448Z,156.40
2023-03-03T00:19:51.005Z,146.00
2023-03-03T00:20:56.097Z,146.90
2023-03-03T00:21:59.136Z,148.80
2023-03-03T00:23:14.705Z,143.60
2023-03-03T00:24:24.163Z,141.70
2023-03-03T00:25:33.888Z,138.00
2023-03-03T00:27:41.033Z,137.90
2023-03-03T00:28:51.163Z,139.10
2023-03-03T00:29:57.675Z,141.00
2023-03-03T00:31:03.384Z,146.10
2023-03-03T00:32:15.045Z,143.00
2023-03-03T00:33:34.723Z,143.80
2023-03-03T00:34:38.249Z,103.40
2023-03-03T00:35:43.512Z,142.50
2023-03-03T00:36:49.623Z,137.90
2023-03-03T00:37:58.438Z,138.80
2023-03-03T00:39:19.616Z,141.00
2023-03-03T00:40:31.853Z,136.60
2023-03-03T00:41:37.587Z,136.40
2023-03-03T00:42:41.056Z,141.30
2023-03-03T00:43:44.003Z,133.50
2023-03-03T00:45:00.496Z,137.10
2023-03-03T00:46:03.823Z,139.00
2023-03-03T00:47:28.236Z,139.80
2023-03-03T00:48:35.633Z,126.50
2023-03-03T00:49:39.902Z,136.70
2023-03-03T00:50:43.748Z,133.00
2023-03-03T00:51:46.613Z,131.20
2023-03-03T00:53:22.245Z,129.30
2023-03-03T00:54:25.112Z,125.60
2023-03-03T00:55:28.751Z,130.20
2023-03-03T00:56:32.372Z,129.30
2023-03-03T00:57:35.328Z,133.60
2023-03-03T00:58:39.084Z,130.90
2023-03-03T00:59:42.071Z,124.00
2023-03-03T01:00:45.277Z,122.10
2023-03-03T01:01:49.637Z,137.30
2023-03-03T01:02:53.203Z,126.40
2023-03-03T01:03:56.275Z,124.50
2023-03-03T01:04:59.114Z,122.30
2023-03-03T01:06:02.008Z,129.10
2023-03-03T01:07:04.905Z,127.20
2023-03-03T01:08:07.876Z,126.80
2023-03-03T01:09:11.140Z,132.30
2023-03-03T01:10:14.075Z,128.90
2023-03-03T01:11:21.994Z,128.30
2023-03-03T01:12:25.031Z,119.30
2023-03-03T01:13:31.295Z,130.90
2023-03-03T01:14:34.347Z,124.80
2023-03-03T01:15:38.623Z,126.90
2023-03-03T01:16:41.760Z,125.40
2023-03-03T01:17:44.681Z,128.20
2023-03-03T01:18:47.850Z,126.30
2023-03-03T01:19:50.729Z,125.70
2023-03-03T01:20:53.941Z,123.30
2023-03-03T01:21:56.879Z,122.60
2023-03-03T01:22:59.836Z,130.10
2023-03-03T01:24:02.769Z,125.60
2023-03-03T01:25:05.933Z,125.00
2023-03-03T01:26:08.922Z,126.00
2023-03-03T01:27:11.762Z,129.90
2023-03-03T01:28:15.019Z,125.50
2023-03-03T01:29:17.923Z,124.10
2023-03-03T01:30:20.953Z,125.00
2023-03-03T01:31:23.884Z,122.60
2023-03-03T01:32:28.523Z,122.80
2023-03-03T01:33:32.483Z,119.00
2023-03-03T01:34:35.791Z,119.70
2023-03-03T01:35:43.367Z,121.80
2023-03-03T01:36:46.272Z,123.80
2023-03-03T01:37:49.514Z,122.50
2023-03-03T01:38:52.521Z,117.30
2023-03-03T01:39:55.972Z,115.10
2023-03-03T01:41:00.054Z,118.80
2023-03-03T01:42:03.408Z,122.80
2023-03-03T01:43:06.803Z,123.30
2023-03-03T01:44:15.585Z,129.00
2023-03-03T01:45:30.547Z,121.80
2023-03-03T01:46:48.056Z,119.50
2023-03-03T01:48:15.514Z,120.00
2023-03-03T01:49:36.762Z,117.90
2023-03-03T01:50:42.533Z,116.00
2023-03-03T01:51:52.963Z,121.90
2023-03-03T01:52:59.789Z,120.70
2023-03-03T01:54:06.461Z,120.10
2023-03-03T01:55:25.188Z,120.20
2023-03-03T01:56:28.609Z,122.70
2023-03-03T01:57:36.081Z,118.60
2023-03-03T01:58:45.825Z,119.50
2023-03-03T01:59:51.273Z,120.20
2023-03-03T02:01:02.095Z,116.00
2023-03-03T02:02:05.523Z,113.60
2023-03-03T02:03:09.337Z,122.70
2023-03-03T02:04:12.296Z,126.30
2023-03-03T02:05:16.639Z,125.80
2023-03-03T02:06:24.045Z,115.10
2023-03-03T02:07:29.714Z,116.80
2023-03-03T02:08:40.486Z,114.60
2023-03-03T02:10:09.168Z,118.70
2023-03-03T02:11:13.760Z,94.60
2023-03-03T02:12:19.409Z,119.70
2023-03-03T02:13:22.286Z,117.40
2023-03-03T02:14:25.678Z,118.60
2023-03-03T02:15:37.305Z,124.50
2023-03-03T02:16:41.236Z,117.50
2023-03-03T02:17:44.567Z,124.40
2023-03-03T02:18:48.277Z,118.10
2023-03-03T02:20:14.509Z,117.90
2023-03-03T02:21:24.035Z,112.80
2023-03-03T02:22:37.936Z,122.50
2023-03-03T02:24:05.702Z,110.40
2023-03-03T02:25:14.103Z,119.90
2023-03-03T02:26:28.121Z,116.70
2023-03-03T02:27:34.612Z,115.00
2023-03-03T02:28:40.168Z,118.50
2023-03-03T02:29:43.497Z,112.90
2023-03-03T02:30:47.108Z,116.10
2023-03-03T02:31:50.015Z,118.00
2023-03-03T02:32:52.872Z,113.90
2023-03-03T02:33:56.475Z,112.60
2023-03-03T02:34:59.330Z,113.20
2023-03-03T02:36:02.209Z,111.30
2023-03-03T02:37:05.079Z,121.00
2023-03-03T02:38:21.935Z,122.00
2023-03-03T02:39:27.251Z,111.50
2023-03-03T02:40:34.784Z,115.10
2023-03-03T02:41:59.331Z,115.30
2023-03-03T02:43:09.577Z,112.90
2023-03-03T02:44:18.557Z,124.80
2023-03-03T02:45:21.669Z,116.50
2023-03-03T02:46:25.200Z,124.60
2023-03-03T02:47:28.030Z,117.10
2023-03-03T02:48:30.964Z,122.10
2023-03-03T02:49:36.665Z,125.40
2023-03-03T02:50:40.116Z,120.50
2023-03-03T02:51:43.797Z,116.70
2023-03-03T02:52:46.752Z,124.70
2023-03-03T02:53:49.880Z,120.20
2023-03-03T02:54:52.766Z,121.80
2023-03-03T02:55:55.648Z,125.00
2023-03-03T02:57:00.188Z,124.60
2023-03-03T02:58:03.158Z,132.00
2023-03-03T02:59:06.646Z,124.50
2023-03-03T03:00:12.602Z,125.40
2023-03-03T03:01:15.520Z,134.40
2023-03-03T03:02:19.547Z,120.50
2023-03-03T03:03:23.259Z,130.10
2023-03-03T03:04:27.539Z,132.10
2023-03-03T03:05:30.565Z,134.50
2023-03-03T03:06:33.864Z,137.70
2023-03-03T03:07:37.838Z,140.20
2023-03-03T03:08:41.298Z,143.00
2023-03-03T03:09:44.215Z,150.80
2023-03-03T03:10:47.362Z,138.20
2023-03-03T03:11:50.790Z,144.40
2023-03-03T03:12:55.885Z,135.20
2023-03-03T03:13:58.853Z,131.70
2023-03-03T03:15:01.780Z,122.10
2023-03-03T03:16:06.537Z,131.10
2023-03-03T03:17:11.706Z,122.80
2023-03-03T03:18:15.915Z,135.70
2023-03-03T03:19:19.030Z,123.90
2023-03-03T03:20:22.989Z,120.60
2023-03-03T03:21:26.146Z,124.60
2023-03-03T03:22:29.289Z,120.90
2023-03-03T03:23:32.262Z,130.20
2023-03-03T03:24:35.249Z,127.00
2023-03-03T03:25:45.428Z,127.70
2023-03-03T03:26:51.048Z,127.30
2023-03-03T03:27:54.037Z,126.00
2023-03-03T03:28:56.913Z,123.80
2023-03-03T03:30:00.488Z,124.00
2023-03-03T03:31:05.668Z,120.10
2023-03-03T03:32:09.183Z,125.50
2023-03-03T03:33:12.403Z,117.60
2023-03-03T03:34:15.778Z,123.90
2023-03-03T03:35:19.950Z,123.30
2023-03-03T03:36:22.894Z,122.00
2023-03-03T03:37:25.774Z,114.10
2023-03-03T03:38:29.882Z,119.10
2023-03-03T03:39:32.759Z,114.20
2023-03-03T03:40:35.741Z,117.80
2023-03-03T03:41:38.653Z,116.50
2023-03-03T03:42:42.043Z,108.10
2023-03-03T03:43:44.936Z,114.00
2023-03-03T03:44:47.908Z,106.90
2023-03-03T03:45:50.983Z,109.70
2023-03-03T03:46:54.046Z,115.50
2023-03-03T03:47:57.134Z,114.80
2023-03-03T03:49:00.185Z,103.20
2023-03-03T03:50:03.298Z,117.00
2023-03-03T03:51:06.254Z,114.60
2023-03-03T03:52:09.554Z,106.50
2023-03-03T03:53:12.631Z,108.20
2023-03-03T03:54:15.584Z,105.60
2023-03-03T03:55:18.924Z,99.90
2023-03-03T03:56:21.769Z,106.80
2023-03-03T03:57:26.880Z,104.50
2023-03-03T03:58:30.212Z,108.90
2023-03-03T03:59:36.753Z,116.50
2023-03-03T04:00:42.234Z,112.50
2023-03-03T04:01:45.438Z,105.70
2023-03-03T04:02:49.092Z,104.40
2023-03-03T04:03:53.045Z,108.10
2023-03-03T04:05:01.189Z,112.20
2023-03-03T04:06:04.357Z,105.10
2023-03-03T04:07:07.291Z,110.00
2023-03-03T04:08:10.860Z,113.30
2023-03-03T04:09:14.171Z,103.80
2023-03-03T04:10:18.361Z,107.80
2023-03-03T04:11:21.560Z,109.60
2023-03-03T04:12:24.697Z,98.50
2023-03-03T04:13:32.030Z,112.00
2023-03-03T04:14:36.528Z,110.50
2023-03-03T04:15:39.407Z,110.40
2023-03-03T04:16:42.308Z,104.50
2023-03-03T04:17:45.559Z,110.50
2023-03-03T04:18:48.769Z,108.00
2023-03-03T04:19:54.069Z,113.50
2023-03-03T04:20:57.230Z,108.50
2023-03-03T04:22:00.569Z,106.70
2023-03-03T04:23:03.436Z,111.70
2023-03-03T04:24:06.963Z,117.40
2023-03-03T04:25:14.533Z,108.10
2023-03-03T04:26:17.896Z,107.10
2023-03-03T04:27:20.840Z,115.00
2023-03-03T04:28:25.365Z,113.90
2023-03-03T04:29:28.616Z,107.60
2023-03-03T04:30:31.637Z,107.50
2023-03-03T04:31:38.080Z,108.50
2023-03-03T04:32:42.784Z,105.70
2023-03-03T04:33:46.460Z,109.00
2023-03-03T04:34:58.702Z,111.40
2023-03-03T04:36:10.242Z,110.40
2023-03-03T04:37:13.636Z,115.70
2023-03-03T04:38:16.654Z,109.20
2023-03-03T04:39:19.737Z,105.30
2023-03-03T04:40:22.940Z,108.80
2023-03-03T04:41:27.014Z,113.60
2023-03-03T04:42:30.240Z,106.50
2023-03-03T04:43:33.208Z,105.70
2023-03-03T04:44:36.564Z,108.50
2023-03-03T04:45:39.488Z,108.20
2023-03-03T04:46:42.876Z,107.30
2023-03-03T04:47:45.900Z,110.60
2023-03-03T04:48:48.961Z,102.40
2023-03-03T04:49:52.324Z,105.90
2023-03-03T04:50:55.493Z,119.30
2023-03-03T04:51:58.800Z,114.40
2023-03-03T04:53:02.196Z,109.40
2023-03-03T04:54:05.088Z,111.50
2023-03-03T04:55:10.413Z,121.50
2023-03-03T04:56:14.206Z,113.10
2023-03-03T04:57:17.082Z,114.40
2023-03-03T04:58:21.083Z,113.30
2023-03-03T04:59:24.044Z,113.00
2023-03-03T05:00:27.103Z,111.20
2023-03-03T05:01:30.339Z,115.90
2023-03-03T05:02:33.274Z,115.30
2023-03-03T05:03:36.405Z,118.30
2023-03-03T05:04:39.357Z,112.40
2023-03-03T05:05:42.250Z,108.70
2023-03-03T05:06:45.178Z,114.10
2023-03-03T05:07:48.102Z,118.60
2023-03-03T05:08:51.161Z,113.20
2023-03-03T05:09:54.091Z,116.00
2023-03-03T05:10:57.028Z,114.40
2023-03-03T05:11:59.974Z,117.80
2023-03-03T05:13:02.974Z,122.40
2023-03-03T05:14:08.201Z,115.40
2023-03-03T05:15:11.191Z,123.50
2023-03-03T05:16:14.702Z,125.50
2023-03-03T05:17:17.545Z,126.50
2023-03-03T05:18:21.070Z,125.00
2023-03-03T05:19:24.284Z,124.20
2023-03-03T05:20:27.754Z,129.40
2023-03-03T05:21:30.601Z,129.20
2023-03-03T05:22:33.533Z,127.90
2023-03-03T05:23:36.456Z,129.40
2023-03-03T05:24:39.596Z,123.70
2023-03-03T05:25:42.737Z,126.40
2023-03-03T05:26:45.585Z,131.00
2023-03-03T05:27:48.580Z,132.00
2023-03-03T05:28:51.499Z,131.10
2023-03-03T05:29:54.343Z,131.30
2023-03-03T05:30:57.209Z,140.80
2023-03-03T05:32:00.211Z,132.30
2023-03-03T05:33:04.304Z,141.50
2023-03-03T05:34:07.406Z,141.90
2023-03-03T05:35:10.529Z,143.40
2023-03-03T05:36:13.416Z,145.60
2023-03-03T05:37:16.465Z,147.90
2023-03-03T05:38:19.347Z,135.20
2023-03-03T05:39:22.249Z,137.50
2023-03-03T05:40:25.978Z,143.70
2023-03-03T05:41:29.374Z,142.40
2023-03-03T05:42:32.348Z,145.30
2023-03-03T05:43:35.355Z,142.00
2023-03-03T05:44:38.782Z,144.60
2023-03-03T05:45:41.751Z,147.80
2023-03-03T05:46:44.660Z,148.60
2023-03-03T05:47:48.590Z,138.60
2023-03-03T05:48:51.521Z,145.20
2023-03-03T05:49:54.385Z,147.20
2023-03-03T05:51:00.623Z,144.30
2023-03-03T05:52:04.106Z,134.10
2023-03-03T05:53:07.145Z,136.20
2023-03-03T05:54:10.211Z,152.10
2023-03-03T05:55:13.496Z,148.00
2023-03-03T05:56:16.451Z,151.80
2023-03-03T05:57:19.319Z,140.10
2023-03-03T05:58:22.579Z,141.30
2023-03-03T05:59:25.445Z,139.60
2023-03-03T06:00:28.320Z,138.10
2023-03-03T06:01:31.306Z,142.00
2023-03-03T06:02:34.879Z,133.90
2023-03-03T06:03:37.995Z,134.60
2023-03-03T06:04:41.009Z,130.90
2023-03-03T06:05:43.923Z,138.60
2023-03-03T06:06:47.183Z,130.60
2023-03-03T06:07:50.042Z,128.10
2023-03-03T06:08:55.499Z,131.40
2023-03-03T06:10:30.978Z,131.30
2023-03-03T06:11:57.105Z,116.90
2023-03-03T06:13:00.097Z,128.10
2023-03-03T06:14:03.012Z,134.20
2023-03-03T06:15:07.251Z,123.50
2023-03-03T06:16:10.373Z,130.00
2023-03-03T06:17:13.299Z,131.20
2023-03-03T06:18:16.540Z,125.60
2023-03-03T06:19:19.467Z,128.30
2023-03-03T06:20:22.479Z,122.50
2023-03-03T06:21:25.424Z,122.70
2023-03-03T06:22:28.384Z,128.80
2023-03-03T06:23:31.264Z,127.80
2023-03-03T06:24:34.917Z,136.50
2023-03-03T06:25:39.767Z,142.20
2023-03-03T06:26:43.056Z,148.50
2023-03-03T06:27:45.964Z,131.70
2023-03-03T06:28:50.264Z,139.40
2023-03-03T06:29:53.126Z,125.20
2023-03-03T06:30:57.009Z,133.20
2023-03-03T06:31:59.984Z,125.70
2023-03-03T06:33:02.972Z,126.00
2023-03-03T06:34:05.841Z,126.50
2023-03-03T06:35:08.716Z,121.10
2023-03-03T06:36:12.270Z,127.80
2023-03-03T06:37:15.156Z,129.70
2023-03-03T06:38:18.523Z,121.50
2023-03-03T06:39:21.562Z,121.30
2023-03-03T06:40:24.393Z,128.10
2023-03-03T06:41:27.272Z,115.50
2023-03-03T06:42:30.256Z,118.50
2023-03-03T06:43:37.138Z,119.80
2023-03-03T06:44:40.049Z,114.00
2023-03-03T06:45:43.718Z,123.70
2023-03-03T06:46:46.698Z,124.10
2023-03-03T06:47:49.697Z,132.90
2023-03-03T06:48:53.211Z,122.50
2023-03-03T06:49:56.093Z,114.20
2023-03-03T06:51:01.769Z,128.10
2023-03-03T06:52:19.140Z,125.10
2023-03-03T06:53:22.096Z,111.50
2023-03-03T06:54:30.897Z,111.40
2023-03-03T06:55:34.050Z,116.10
2023-03-03T06:56:38.092Z,117.60
2023-03-03T06:57:41.383Z,114.00
2023-03-03T06:58:44.267Z,119.10
2023-03-03T06:59:52.000Z,109.20
2023-03-03T07:00:59.493Z,128.10
2023-03-03T07:02:02.432Z,123.00
2023-03-03T07:03:32.469Z,110.70
2023-03-03T07:04:35.481Z,111.90
2023-03-03T07:05:39.011Z,111.10
2023-03-03T07:06:41.839Z,114.60
2023-03-03T07:07:44.914Z,108.20
2023-03-03T07:08:48.478Z,110.20
2023-03-03T07:09:54.670Z,105.50
2023-03-03T07:11:02.493Z,117.50
2023-03-03T07:12:13.764Z,110.70
2023-03-03T07:13:25.455Z,117.60
2023-03-03T07:14:29.452Z,126.70
2023-03-03T07:15:36.197Z,129.20
2023-03-03T07:16:39.277Z,121.90
2023-03-03T07:17:46.004Z,119.30
2023-03-03T07:19:05.471Z,125.00
2023-03-03T07:20:19.043Z,117.40
2023-03-03T07:21:34.350Z,112.20
2023-03-03T07:22:37.265Z,118.70
2023-03-03T07:23:42.783Z,134.10
2023-03-03T07:24:49.950Z,133.10
2023-03-03T07:25:55.249Z,124.30
2023-03-03T07:27:12.756Z,117.20
2023-03-03T07:28:26.186Z,126.60
2023-03-03T07:29:33.783Z,128.00
2023-03-03T07:30:36.851Z,129.50
2023-03-03T07:31:42.001Z,126.20
2023-03-03T07:32:49.208Z,119.10
2023-03-03T07:33:52.158Z,118.10
2023-03-03T07:34:56.780Z,117.40
2023-03-03T07:36:01.588Z,114.20
2023-03-03T07:37:16.784Z,114.40
2023-03-03T07:38:19.896Z,111.90
2023-03-03T07:39:32.300Z,113.10
2023-03-03T07:40:38.148Z,123.50
2023-03-03T07:41:41.463Z,113.10
2023-03-03T07:42:44.465Z,113.70
2023-03-03T07:44:19.724Z,104.80
2023-03-03T07:45:31.219Z,101.50
2023-03-03T07:46:43.742Z,108.50
2023-03-03T07:47:46.790Z,104.70
2023-03-03T07:48:49.954Z,113.00
2023-03-03T07:49:56.439Z,109.40
2023-03-03T07:51:06.242Z,110.70
2023-03-03T07:53:35.000Z,106.40
2023-03-03T07:54:45.896Z,101.80
2023-03-03T07:55:49.588Z,109.70
2023-03-03T07:56:52.515Z,103.00
2023-03-03T07:57:59.117Z,105.60
2023-03-03T07:59:18.536Z,110.40
2023-03-03T08:00:21.386Z,114.40
2023-03-03T08:01:44.861Z,107.60
2023-03-03T08:03:05.140Z,119.10
2023-03-03T08:04:28.250Z,119.30
2023-03-03T08:05:35.097Z,117.90
2023-03-03T08:06:56.744Z,106.70
2023-03-03T08:08:21.414Z,104.60
2023-03-03T08:09:42.845Z,102.60
2023-03-03T08:10:57.142Z,107.90
2023-03-03T08:12:28.900Z,112.80
2023-03-03T08:13:34.917Z,103.80
2023-03-03T08:14:38.757Z,110.90
2023-03-03T08:15:41.737Z,111.40
2023-03-03T08:16:44.735Z,113.40
2023-03-03T08:17:49.745Z,93.30
2023-03-03T08:18:53.950Z,95.30
2023-03-03T08:19:56.962Z,91.50
2023-03-03T08:21:03.003Z,91.10
2023-03-03T08:22:21.923Z,93.20
2023-03-03T08:23:24.849Z,89.80
2023-03-03T08:24:27.737Z,90.30
2023-03-03T08:25:30.645Z,89.90
2023-03-03T08:26:33.642Z,93.40
2023-03-03T08:27:36.519Z,89.30
2023-03-03T08:28:39.524Z,97.50
2023-03-03T08:29:42.399Z,92.90
2023-03-03T08:30:45.712Z,101.80
2023-03-03T08:31:48.685Z,93.70
2023-03-03T08:32:51.576Z,92.40
2023-03-03T08:33:54.469Z,86.20
2023-03-03T08:34:57.333Z,80.60
2023-03-03T08:36:00.231Z,80.90
2023-03-03T08:37:03.356Z,80.00
2023-03-03T08:38:06.530Z,76.30
2023-03-03T08:39:10.451Z,76.00
2023-03-03T08:40:13.376Z,78.20
2023-03-03T08:41:16.558Z,82.30
2023-03-03T08:42:19.583Z,74.70
2023-03-03T08:43:22.941Z,76.90
2023-03-03T08:44:26.035Z,81.30
2023-03-03T08:45:29.140Z,97.80
2023-03-03T08:46:32.258Z,95.00
2023-03-03T08:47:35.228Z,90.70
2023-03-03T08:48:38.598Z,95.10
2023-03-03T08:49:41.525Z,87.40
2023-03-03T08:50:45.218Z,75.70
2023-03-03T08:51:48.136Z,83.40
2023-03-03T08:52:51.088Z,77.90
2023-03-03T08:53:54.002Z,76.80
2023-03-03T08:54:57.027Z,82.00
2023-03-03T08:55:59.910Z,75.50
2023-03-03T08:57:02.769Z,84.20
2023-03-03T08:58:05.762Z,86.30
2023-03-03T08:59:08.656Z,91.10
2023-03-03T09:00:15.169Z,88.50
2023-03-03T09:01:18.564Z,87.40
2023-03-03T09:02:21.530Z,75.30
2023-03-03T09:03:24.412Z,73.00
2023-03-03T09:04:27.611Z,71.90
2023-03-03T09:05:31.554Z,73.30
2023-03-03T09:06:34.933Z,65.60
2023-03-03T09:07:39.528Z,71.80
2023-03-03T09:08:42.470Z,75.70
2023-03-03T09:09:45.354Z,74.40
2023-03-03T09:10:48.354Z,76.90
2023-03-03T09:11:58.030Z,70.60
2023-03-03T09:13:09.406Z,71.50
2023-03-03T09:14:14.957Z,73.50
2023-03-03T09:15:35.344Z,66.80
2023-03-03T09:16:41.267Z,66.80
2023-03-03T09:17:44.609Z,63.50
2023-03-03T09:18:47.483Z,66.90
2023-03-03T09:19:50.489Z,67.30
2023-03-03T09:20:54.860Z,62.50
2023-03-03T09:22:02.487Z,69.20
2023-03-03T09:23:26.673Z,71.30
2023-03-03T09:24:36.336Z,73.60
2023-03-03T09:25:41.972Z,73.10
2023-03-03T09:26:48.812Z,72.90
2023-03-03T09:27:54.755Z,67.30
2023-03-03T09:29:15.566Z,69.70
2023-03-03T09:30:36.537Z,69.90
2023-03-03T09:31:39.745Z,70.70
2023-03-03T09:32:43.327Z,72.00
2023-03-03T09:33:49.900Z,71.30
2023-03-03T09:34:52.916Z,65.40
2023-03-03T09:36:12.580Z,74.10
2023-03-03T09:38:31.542Z,65.70
2023-03-03T09:39:36.868Z,65.70
2023-03-03T09:40:50.598Z,75.40
2023-03-03T09:42:05.693Z,79.50
2023-03-03T09:43:14.759Z,75.30
2023-03-03T09:44:49.739Z,78.10
2023-03-03T09:45:58.536Z,82.90
2023-03-03T09:47:17.165Z,81.80
2023-03-03T09:48:30.641Z,74.40
2023-03-03T09:49:47.910Z,74.40
2023-03-03T09:51:12.177Z,67.10
2023-03-03T09:52:22.403Z,70.60
2023-03-03T09:53:50.288Z,69.60
2023-03-03T09:55:02.024Z,71.80
2023-03-03T09:56:08.228Z,79.80
2023-03-03T09:57:17.562Z,75.10
2023-03-03T09:58:52.951Z,81.00
2023-03-03T10:00:01.558Z,82.50
2023-03-03T10:01:32.876Z,77.70
2023-03-03T10:02:57.802Z,71.50
2023-03-03T10:04:19.096Z,69.30
2023-03-03T10:05:27.722Z,68.50
2023-03-03T10:06:55.156Z,66.60
2023-03-03T10:08:13.099Z,70.90
2023-03-03T10:09:34.604Z,75.30
2023-03-03T10:11:15.677Z,75.20
2023-03-03T10:12:29.011Z,75.10
2023-03-03T10:13:45.662Z,71.60
2023-03-03T10:14:57.900Z,70.20
2023-03-03T10:16:04.152Z,71.50
2023-03-03T10:17:27.760Z,74.00
2023-03-03T10:18:39.379Z,68.90
2023-03-03T10:19:48.317Z,67.90
2023-03-03T10:20:59.778Z,67.60
2023-03-03T10:22:25.985Z,71.50
2023-03-03T10:23:57.629Z,67.20
2023-03-03T10:25:21.066Z,70.40
2023-03-03T10:26:44.394Z,67.50
2023-03-03T10:28:15.810Z,72.60
2023-03-03T10:29:53.347Z,75.00
2023-03-03T10:31:20.835Z,76.00
2023-03-03T10:32:30.451Z,76.70
2023-03-03T10:34:19.721Z,71.50
2023-03-03T10:36:55.166Z,76.40
2023-03-03T10:38:25.627Z,80.20
2023-03-03T10:39:40.154Z,72.70
2023-03-03T10:41:04.513Z,70.70
2023-03-03T10:42:21.239Z,77.10
2023-03-03T10:43:32.885Z,84.50
2023-03-03T10:45:07.815Z,79.00
2023-03-03T10:46:25.426Z,83.00
2023-03-03T10:47:28.296Z,79.20
2023-03-03T10:48:46.726Z,81.00
2023-03-03T10:50:10.427Z,80.20
2023-03-03T10:51:22.092Z,83.10
2023-03-03T10:52:42.478Z,81.90
2023-03-03T10:54:01.000Z,85.30
2023-03-03T10:55:23.264Z,80.80
2023-03-03T10:56:52.414Z,78.20
2023-03-03T10:58:17.226Z,76.30
2023-03-03T10:59:20.649Z,67.60
2023-03-03T11:00:29.654Z,64.50
2023-03-03T11:01:46.371Z,63.10
2023-03-03T11:03:27.779Z,61.90
2023-03-03T11:04:44.915Z,64.10
2023-03-03T11:06:11.232Z,63.10
2023-03-03T11:07:41.255Z,63.20
2023-03-03T11:08:53.333Z,71.20
2023-03-03T11:10:30.481Z,67.60
2023-03-03T11:11:58.564Z,67.40
2023-03-03T11:13:19.286Z,61.60
2023-03-03T11:14:37.607Z,66.60
2023-03-03T11:15:52.377Z,70.50
2023-03-03T11:17:25.367Z,67.80
2023-03-03T11:18:47.352Z,61.70
2023-03-03T11:20:36.380Z,62.00
2023-03-03T11:21:47.134Z,55.80
2023-03-03T11:23:38.262Z,57.40
2023-03-03T11:24:59.755Z,47.40
2023-03-03T11:26:29.792Z,47.60
2023-03-03T11:27:50.597Z,49.60
2023-03-03T11:29:23.968Z,45.30
2023-03-03T11:30:45.253Z,37.80
2023-03-03T11:32:09.583Z,40.10
2023-03-03T11:33:18.870Z,36.40
2023-03-03T11:34:51.936Z,37.30
2023-03-03T11:35:57.776Z,36.00
2023-03-03T11:37:38.709Z,36.80
2023-03-03T11:38:56.907Z,37.10
2023-03-03T11:40:10.668Z,40.10
2023-03-03T11:41:38.117Z,37.30
2023-03-03T11:42:40.938Z,36.90
2023-03-03T11:43:53.554Z,37.10
2023-03-03T11:45:20.088Z,38.50
2023-03-03T11:46:30.297Z,40.20
2023-03-03T11:47:42.455Z,42.60
2023-03-03T11:48:54.830Z,38.90
2023-03-03T11:50:53.738Z,38.00
2023-03-03T11:52:08.896Z,38.00
2023-03-03T11:53:25.017Z,39.40
2023-03-03T11:54:48.545Z,39.70
2023-03-03T11:56:06.657Z,44.30
2023-03-03T11:57:31.045Z,45.80
2023-03-03T11:58:44.927Z,47.90
2023-03-03T12:00:12.484Z,47.50
2023-03-03T12:01:17.992Z,45.10
2023-03-03T12:02:45.974Z,46.80
2023-03-03T12:04:06.430Z,47.40
2023-03-03T12:05:32.021Z,41.80
2023-03-03T12:07:09.744Z,44.70
2023-03-03T12:08:22.285Z,37.10
2023-03-03T12:09:43.818Z,39.40
2023-03-03T12:11:11.705Z,39.80
2023-03-03T12:12:17.479Z,40.10
2023-03-03T12:13:37.130Z,40.20
2023-03-03T12:14:55.261Z,40.10
2023-03-03T12:16:18.634Z,40.30
2023-03-03T12:17:27.040Z,39.30
2023-03-03T12:18:38.374Z,38.20
2023-03-03T12:19:46.878Z,40.60
2023-03-03T12:21:11.338Z,41.10
2023-03-03T12:22:33.592Z,38.80
2023-03-03T12:24:02.539Z,38.10
2023-03-03T12:25:37.273Z,39.10
2023-03-03T12:27:03.074Z,40.10
2023-03-03T12:28:16.312Z,40.90
2023-03-03T12:29:36.310Z,38.00
2023-03-03T12:30:47.014Z,41.20
2023-03-03T12:31:50.167Z,38.90
2023-03-03T12:32:53.288Z,38.50
2023-03-03T12:33:58.556Z,39.50
2023-03-03T12:35:20.910Z,42.10
2023-03-03T12:36:56.432Z,38.90
2023-03-03T12:38:24.157Z,36.70
2023-03-03T12:39:42.196Z,36.20
2023-03-03T12:40:58.080Z,39.60
2023-03-03T12:42:12.451Z,41.80
2023-03-03T12:43:21.278Z,41.20
2023-03-03T12:45:00.592Z,40.80
2023-03-03T12:46:13.071Z,42.30
2023-03-03T12:47:27.745Z,47.20
2023-03-03T12:48:45.000Z,41.10
2023-03-03T12:50:01.175Z,38.40
2023-03-03T12:51:29.321Z,44.50
2023-03-03T12:52:57.385Z,38.20
2023-03-03T12:54:38.129Z,38.00
2023-03-03T12:55:55.365Z,35.90
2023-03-03T12:57:04.013Z,41.40
2023-03-03T12:58:09.774Z,41.00
2023-03-03T12:59:26.825Z,41.30
2023-03-03T13:00:51.281Z,41.60
2023-03-03T13:02:20.584Z,41.00
2023-03-03T13:03:46.265Z,42.10
2023-03-03T13:05:09.096Z,46.40
2023-03-03T13:06:34.764Z,42.70
2023-03-03T13:07:51.502Z,45.60
2023-03-03T13:09:02.842Z,45.50
2023-03-03T13:10:26.739Z,42.20
2023-03-03T13:11:54.166Z,39.00
2023-03-03T13:13:08.092Z,39.30
2023-03-03T13:14:38.679Z,39.50
2023-03-03T13:15:56.305Z,38.70
2023-03-03T13:17:22.428Z,38.40
2023-03-03T13:18:46.440Z,38.50
2023-03-03T13:19:56.564Z,44.60
2023-03-03T13:21:19.623Z,38.60
2023-03-03T13:22:38.107Z,41.30
2023-03-03T13:24:16.043Z,36.90
2023-03-03T13:25:27.501Z,41.30
2023-03-03T13:26:43.053Z,39.60
2023-03-03T13:27:50.870Z,35.80
2023-03-03T13:29:08.651Z,38.50
2023-03-03T13:30:21.954Z,37.60
2023-03-03T13:31:38.580Z,39.00
2023-03-03T13:33:14.850Z,38.10
2023-03-03T13:34:39.703Z,36.50
2023-03-03T13:35:48.003Z,47.40
2023-03-03T13:36:57.239Z,50.20
2023-03-03T13:38:02.968Z,39.50
2023-03-03T13:39:22.742Z,42.60
2023-03-03T13:40:41.619Z,42.80
2023-03-03T13:41:52.135Z,41.40
2023-03-03T13:43:23.156Z,39.10
2023-03-03T13:44:41.422Z,35.70
2023-03-03T13:45:57.573Z,40.50
2023-03-03T13:47:06.732Z,43.10
2023-03-03T13:48:23.118Z,42.40
2023-03-03T13:49:28.650Z,42.80
2023-03-03T13:50:56.728Z,44.60
2023-03-03T13:52:10.160Z,43.90
2023-03-03T13:53:37.611Z,44.60
2023-03-03T13:54:52.842Z,43.80
2023-03-03T13:56:14.284Z,48.30
2023-03-03T13:57:35.508Z,45.60
2023-03-03T13:58:50.062Z,48.60
2023-03-03T14:00:08.317Z,40.10
2023-03-03T14:01:25.602Z,48.40
2023-03-03T14:02:40.510Z,43.90
2023-03-03T14:04:04.594Z,42.80
2023-03-03T14:05:35.878Z,46.10
2023-03-03T14:06:41.624Z,43.30
2023-03-03T14:07:59.419Z,46.20
2023-03-03T14:09:31.596Z,49.30
2023-03-03T14:10:42.856Z,51.00
2023-03-03T14:12:00.816Z,48.80
2023-03-03T14:13:39.747Z,46.60
2023-03-03T14:15:11.535Z,43.10
2023-03-03T14:16:28.192Z,48.10
2023-03-03T14:17:43.273Z,43.40
2023-03-03T14:18:57.405Z,46.90
2023-03-03T14:20:18.658Z,47.30
2023-03-03T14:21:29.662Z,45.70
2023-03-03T14:22:38.676Z,52.30
2023-03-03T14:23:50.214Z,47.50
2023-03-03T14:25:09.873Z,50.80
2023-03-03T14:27:34.841Z,46.00
2023-03-03T14:28:44.183Z,43.20
2023-03-03T14:29:47.371Z,47.10
2023-03-03T14:30:55.382Z,48.60
2023-03-03T14:32:03.134Z,45.60
2023-03-03T14:33:08.646Z,47.10
2023-03-03T14:34:11.458Z,44.30
2023-03-03T14:35:20.922Z,44.70
2023-03-03T14:36:37.192Z,44.90
2023-03-03T14:37:45.054Z,44.10
2023-03-03T14:38:49.124Z,43.80
2023-03-03T14:40:09.803Z,44.40
2023-03-03T14:41:12.668Z,47.10
2023-03-03T14:42:34.796Z,42.50
2023-03-03T14:43:40.238Z,43.80
2023-03-03T14:44:45.585Z,41.90
2023-03-03T14:45:48.638Z,44.10
2023-03-03T14:47:12.829Z,42.70
2023-03-03T14:48:19.066Z,41.50